Time;durP1;ratioP1;P1;durP2;ratioP2;P2;SDS_P1;SDS_P2;PMS_P1;PMS_P2;Temp;Humidity;BMP_temperature;BMP_pressure;BME280_temperature;BME280_humidity;BME280_pressure;Samples;Min_cycle;Max_cycle;Signal;HPM_P1;HPM_P2
2022/05/25 00:01:09;;;;;;;4.35;1.90;;;10.10;90.60;;;;;;5035895;28;20390;-68
2022/05/25 00:03:38;;;;;;;3.00;1.70;;;10.10;90.80;;;;;;5034457;28;20512;-68
2022/05/25 00:06:08;;;;;;;3.47;1.50;;;10.10;91.20;;;;;;5036330;28;20055;-67
2022/05/25 00:08:36;;;;;;;3.13;1.48;;;10.10;91.40;;;;;;5037856;28;20029;-67
2022/05/25 00:11:02;;;;;;;2.53;1.63;;;10.20;91.60;;;;;;5040961;28;20119;-68
2022/05/25 00:13:28;;;;;;;3.40;1.50;;;10.20;92.30;;;;;;5034554;28;20791;-68
2022/05/25 00:15:57;;;;;;;4.45;1.67;;;10.20;92.20;;;;;;5033605;28;20092;-68
2022/05/25 00:18:25;;;;;;;4.28;1.80;;;10.20;92.00;;;;;;5053632;28;20021;-67
2022/05/25 00:20:54;;;;;;;3.00;1.50;;;10.20;92.00;;;;;;5055628;28;20125;-68
2022/05/25 00:23:19;;;;;;;3.10;1.50;;;10.20;91.90;;;;;;5041408;28;20086;-68
2022/05/25 00:25:46;;;;;;;3.67;1.92;;;10.20;91.90;;;;;;5034652;28;20024;-67
2022/05/25 00:28:16;;;;;;;3.17;1.50;;;10.20;91.70;;;;;;5035891;28;20056;-68
2022/05/25 00:30:44;;;;;;;4.82;1.60;;;10.30;92.00;;;;;;5033412;28;20852;-68
2022/05/25 00:33:10;;;;;;;3.67;1.73;;;10.30;92.00;;;;;;5035163;28;20029;-68
2022/05/25 00:35:39;;;;;;;2.90;1.50;;;10.20;92.00;;;;;;5033953;28;20079;-69
2022/05/25 00:38:08;;;;;;;3.38;1.65;;;10.20;91.90;;;;;;5034285;28;20065;-69
2022/05/25 00:40:39;;;;;;;4.15;1.85;;;10.30;91.80;;;;;;5034959;28;20024;-69
2022/05/25 00:43:06;;;;;;;5.07;2.00;;;10.30;91.50;;;;;;5041744;28;20057;-69
2022/05/25 00:46:06;;;;;;;3.55;1.67;;;10.30;91.80;;;;;;5037303;28;20033;-68
2022/05/25 00:48:39;;;;;;;3.92;1.83;;;10.30;91.60;;;;;;5025305;28;20472;-69
2022/05/25 00:51:12;;;;;;;3.10;1.67;;;10.30;91.50;;;;;;5040110;28;20863;-68
2022/05/25 00:53:43;;;;;;;4.22;1.80;;;10.30;91.50;;;;;;5039668;28;20068;-68
2022/05/25 00:56:12;;;;;;;6.65;1.73;;;10.30;91.80;;;;;;5038715;28;20022;-68
2022/05/25 00:58:39;;;;;;;3.95;1.70;;;10.40;92.20;;;;;;5047858;28;20029;-67
2022/05/25 01:01:05;;;;;;;3.10;1.30;;;10.40;92.30;;;;;;5040142;28;20823;-68
2022/05/25 01:03:36;;;;;;;2.67;1.35;;;10.40;92.60;;;;;;5040001;28;20459;-68
2022/05/25 01:06:07;;;;;;;3.20;1.60;;;10.40;92.60;;;;;;5040226;28;20060;-68
2022/05/25 01:09:18;;;;;;;3.83;1.60;;;10.50;93.00;;;;;;5048884;28;20120;-68
2022/05/25 01:12:06;;;;;;;3.25;1.60;;;10.50;93.00;;;;;;4982847;28;20034;-68
2022/05/25 01:14:49;;;;;;;4.32;1.92;;;10.50;93.00;;;;;;5033341;28;20036;-68
2022/05/25 01:17:36;;;;;;;3.93;1.60;;;10.60;92.80;;;;;;5039993;28;20652;-69
2022/05/25 01:20:14;;;;;;;2.63;1.30;;;10.60;92.70;;;;;;5039168;28;20287;-68
2022/05/25 01:22:59;;;;;;;4.22;1.63;;;10.70;92.50;;;;;;5042148;28;20329;-68
2022/05/25 01:25:27;;;;;;;3.10;1.40;;;10.70;93.10;;;;;;5038037;28;20025;-68
2022/05/25 01:27:55;;;;;;;3.38;1.42;;;10.60;93.00;;;;;;5040489;28;20056;-68
2022/05/25 01:30:20;;;;;;;4.00;1.90;;;10.60;93.30;;;;;;5039537;28;20033;-68
2022/05/25 01:32:59;;;;;;;2.25;1.35;;;10.60;93.50;;;;;;5038974;28;20558;-68
2022/05/25 01:35:48;;;;;;;4.07;1.48;;;10.60;93.80;;;;;;5038043;28;20032;-68
2022/05/25 01:38:28;;;;;;;2.33;1.30;;;10.60;94.50;;;;;;5040570;28;20033;-67
2022/05/25 01:41:13;;;;;;;2.78;1.45;;;10.70;95.00;;;;;;5040878;28;20094;-68
2022/05/25 01:43:48;;;;;;;2.40;1.20;;;10.70;95.20;;;;;;5038480;28;20120;-68
2022/05/25 01:46:23;;;;;;;5.35;1.50;;;10.70;95.30;;;;;;5043653;28;20021;-68
2022/05/25 01:48:50;;;;;;;2.75;1.50;;;10.70;95.40;;;;;;5042338;28;20425;-68
2022/05/25 01:51:27;;;;;;;2.65;1.50;;;10.70;95.40;;;;;;5039353;28;20029;-68
2022/05/25 01:53:57;;;;;;;2.33;1.27;;;10.70;95.00;;;;;;5038128;28;20436;-68
2022/05/25 01:56:28;;;;;;;5.25;1.80;;;10.70;94.70;;;;;;5041513;28;20032;-68
2022/05/25 01:58:59;;;;;;;2.97;1.50;;;10.70;94.70;;;;;;5051215;28;20032;-68
2022/05/25 02:01:25;;;;;;;5.32;2.20;;;10.70;94.50;;;;;;5043743;28;20035;-68
2022/05/25 02:06:40;;;;;;;;;;;10.70;94.10;;;;;;5060392;28;20027;-68
2022/05/25 02:09:44;;;;;;;2.63;1.30;;;10.70;94.10;;;;;;5054132;28;19913;-68
2022/05/25 02:12:15;;;;;;;4.75;1.50;;;10.70;94.10;;;;;;5050177;28;20110;-68
2022/05/25 02:14:57;;;;;;;4.05;1.55;;;10.70;94.70;;;;;;5045295;28;20325;-68
2022/05/25 02:18:13;;;;;;;3.25;1.40;;;10.70;95.00;;;;;;5039188;28;20032;-68
2022/05/25 02:20:51;;;;;;;2.92;1.50;;;10.70;95.20;;;;;;4973359;28;20038;-69
2022/05/25 02:23:37;;;;;;;3.22;1.42;;;10.70;95.30;;;;;;4973192;28;20053;-68
2022/05/25 02:26:18;;;;;;;4.45;1.60;;;10.70;95.30;;;;;;5025322;28;20036;-69
2022/05/25 02:28:49;;;;;;;4.88;1.27;;;10.70;95.40;;;;;;5039423;28;20028;-69
2022/05/25 02:31:20;;;;;;;4.50;1.42;;;10.70;95.70;;;;;;5038445;28;20116;-69
2022/05/25 02:33:49;;;;;;;3.75;1.23;;;10.70;95.70;;;;;;5038693;28;20417;-69
2022/05/25 02:36:17;;;;;;;2.55;1.27;;;10.80;95.50;;;;;;5038456;28;20131;-69
2022/05/25 02:38:50;;;;;;;2.05;1.20;;;10.80;95.30;;;;;;5037518;28;20029;-69
2022/05/25 02:41:34;;;;;;;3.85;1.20;;;10.70;95.20;;;;;;5036955;28;20075;-69
2022/05/25 02:44:03;;;;;;;2.28;1.23;;;10.70;95.30;;;;;;5039070;28;20317;-69
2022/05/25 02:46:29;;;;;;;4.03;1.60;;;10.70;95.10;;;;;;5041635;28;20025;-69
2022/05/25 02:48:56;;;;;;;2.85;1.25;;;10.60;95.60;;;;;;5038529;28;20373;-69
2022/05/25 02:51:21;;;;;;;2.88;1.20;;;10.60;96.00;;;;;;5038816;28;20495;-68
2022/05/25 02:53:47;;;;;;;2.40;1.20;;;10.60;95.50;;;;;;5035995;28;20036;-70
2022/05/25 02:56:16;;;;;;;2.53;1.30;;;10.60;95.80;;;;;;5040535;28;20029;-69
2022/05/25 02:58:42;;;;;;;3.42;1.40;;;10.50;95.60;;;;;;5039389;28;20040;-68
2022/05/25 03:01:10;;;;;;;4.55;1.50;;;10.50;95.30;;;;;;5039705;28;20086;-68
2022/05/25 03:03:40;;;;;;;3.80;1.60;;;10.50;94.80;;;;;;5038565;28;20025;-68
2022/05/25 03:06:10;;;;;;;3.58;1.48;;;10.50;94.50;;;;;;5039042;28;20348;-68
2022/05/25 03:08:35;;;;;;;4.80;1.55;;;10.50;94.30;;;;;;5038952;28;20158;-68
2022/05/25 03:11:03;;;;;;;1.92;1.20;;;10.40;94.70;;;;;;5048956;28;20078;-68
2022/05/25 03:13:32;;;;;;;3.10;1.48;;;10.30;94.60;;;;;;5040243;28;20060;-68
2022/05/25 03:15:58;;;;;;;3.83;1.42;;;10.30;95.40;;;;;;5039936;28;20132;-68
2022/05/25 03:18:27;;;;;;;2.58;1.13;;;10.30;95.80;;;;;;5037805;28;20037;-67
2022/05/25 03:20:53;;;;;;;3.35;1.40;;;10.30;95.40;;;;;;5039449;28;20934;-67
2022/05/25 03:23:21;;;;;;;3.15;1.33;;;10.30;94.70;;;;;;5065786;28;20036;-67
2022/05/25 03:25:47;;;;;;;3.80;1.40;;;10.20;94.40;;;;;;5042017;28;20052;-68
2022/05/25 03:28:14;;;;;;;1.95;1.08;;;10.10;94.00;;;;;;5040194;28;20029;-67
2022/05/25 03:30:45;;;;;;;3.67;1.27;;;10.10;93.70;;;;;;5037054;28;20324;-68
2022/05/25 03:33:11;;;;;;;4.97;1.60;;;10.10;94.60;;;;;;5038385;28;20037;-68
2022/05/25 03:35:41;;;;;;;4.13;1.40;;;10.10;95.20;;;;;;5038117;28;21161;-69
2022/05/25 03:38:07;;;;;;;3.63;1.50;;;10.10;95.70;;;;;;5037994;28;20075;-68
2022/05/25 03:40:36;;;;;;;2.58;1.42;;;10.10;96.30;;;;;;5039683;28;20112;-68
2022/05/25 03:43:01;;;;;;;2.75;1.35;;;10.10;96.60;;;;;;5037760;28;20051;-68
2022/05/25 03:45:27;;;;;;;2.17;1.27;;;10.10;96.60;;;;;;5043977;28;20017;-68
2022/05/25 03:47:55;;;;;;;2.17;1.33;;;10.10;96.80;;;;;;5037430;28;20021;-67
2022/05/25 03:50:23;;;;;;;4.05;1.17;;;10.10;96.40;;;;;;5041358;28;20148;-68
2022/05/25 03:52:48;;;;;;;3.92;1.60;;;10.10;96.10;;;;;;5035521;28;20033;-68
2022/05/25 03:55:15;;;;;;;3.25;1.30;;;10.20;95.80;;;;;;5040121;28;20051;-68
2022/05/25 03:57:40;;;;;;;4.00;1.40;;;10.10;95.50;;;;;;5037376;28;20496;-68
2022/05/25 04:00:08;;;;;;;2.45;1.40;;;10.10;95.10;;;;;;5041451;28;20041;-69
2022/05/25 04:02:34;;;;;;;2.85;1.23;;;10.10;95.00;;;;;;5037763;28;20982;-68
2022/05/25 04:05:08;;;;;;;4.32;1.55;;;10.10;94.90;;;;;;5037983;28;20132;-68
2022/05/25 04:07:43;;;;;;;3.50;1.30;;;10.10;95.00;;;;;;5036693;28;20226;-69
2022/05/25 04:10:13;;;;;;;3.17;1.38;;;10.00;94.80;;;;;;5047711;28;20523;-70
2022/05/25 04:12:43;;;;;;;3.83;1.50;;;10.00;95.20;;;;;;5037785;28;20033;-68
2022/05/25 04:15:14;;;;;;;2.38;1.20;;;10.00;95.60;;;;;;5037943;28;20044;-68
2022/05/25 04:17:40;;;;;;;2.60;1.30;;;10.00;95.60;;;;;;5042105;28;20145;-68
2022/05/25 04:20:06;;;;;;;2.80;1.45;;;10.00;95.90;;;;;;5041248;28;20037;-68
2022/05/25 04:22:32;;;;;;;4.78;1.90;;;10.10;96.00;;;;;;5041954;28;20021;-69
2022/05/25 04:25:04;;;;;;;2.63;1.30;;;10.10;96.20;;;;;;5056217;28;20455;-69
2022/05/25 04:27:29;;;;;;;3.22;1.60;;;10.10;96.30;;;;;;5055989;28;20030;-68
2022/05/25 04:29:58;;;;;;;4.95;1.40;;;10.10;96.20;;;;;;5042556;28;20511;-68
2022/05/25 04:32:24;;;;;;;2.40;1.38;;;10.20;96.00;;;;;;5040651;28;20040;-68
2022/05/25 04:34:49;;;;;;;3.45;1.45;;;10.20;95.90;;;;;;5040971;28;20591;-68
2022/05/25 04:39:59;;;;;;;2.72;1.38;;;10.30;95.60;;;;;;5036293;28;20040;-68
2022/05/25 04:42:29;;;;;;;2.70;1.48;;;10.30;95.60;;;;;;5041597;28;20025;-67
2022/05/25 04:45:00;;;;;;;3.28;1.33;;;10.40;95.30;;;;;;5042976;28;20139;-68
2022/05/25 04:47:37;;;;;;;3.50;1.30;;;10.40;95.50;;;;;;5039124;28;20035;-68
2022/05/25 04:50:06;;;;;;;2.38;1.40;;;10.40;95.40;;;;;;5041183;28;20032;-68
2022/05/25 04:52:36;;;;;;;2.05;1.20;;;10.40;95.40;;;;;;5041949;28;20506;-68
2022/05/25 04:55:03;;;;;;;2.75;1.48;;;10.50;95.70;;;;;;5037961;28;20044;-67
2022/05/25 04:57:29;;;;;;;2.55;1.50;;;10.40;95.60;;;;;;5039723;28;20049;-67
2022/05/25 04:59:58;;;;;;;2.25;1.20;;;10.40;95.80;;;;;;5038996;28;20145;-67
2022/05/25 05:02:29;;;;;;;3.67;1.75;;;10.50;95.60;;;;;;5053568;28;20495;-67
2022/05/25 05:04:55;;;;;;;3.42;1.40;;;10.60;96.00;;;;;;5038552;28;20032;-68
2022/05/25 05:07:32;;;;;;;4.18;1.40;;;10.70;96.10;;;;;;5040849;28;20446;-68
2022/05/25 05:10:01;;;;;;;4.60;1.38;;;10.80;96.70;;;;;;5040691;28;20104;-68
2022/05/25 05:12:27;;;;;;;3.85;1.35;;;10.90;96.70;;;;;;5046254;28;20128;-68
2022/05/25 05:14:54;;;;;;;4.18;1.20;;;11.00;96.50;;;;;;5059118;28;20028;-68
2022/05/25 05:17:19;;;;;;;2.53;1.27;;;11.10;96.60;;;;;;5068434;28;20033;-68
2022/05/25 05:19:45;;;;;;;2.97;1.17;;;11.20;97.20;;;;;;5062787;28;20083;-69
2022/05/25 05:22:11;;;;;;;2.58;1.30;;;11.10;97.40;;;;;;5057673;28;20116;-69
2022/05/25 05:24:36;;;;;;;5.70;1.45;;;11.10;97.10;;;;;;5056323;28;20104;-69
2022/05/25 05:27:06;;;;;;;2.92;1.35;;;11.10;96.80;;;;;;5056273;28;20033;-69
2022/05/25 05:29:32;;;;;;;3.05;1.58;;;11.10;96.90;;;;;;5062230;28;20451;-69
2022/05/25 05:31:58;;;;;;;4.32;1.70;;;11.10;97.00;;;;;;5078396;28;20348;-69
2022/05/25 05:34:28;;;;;;;3.13;1.50;;;11.10;97.00;;;;;;5076646;28;20024;-69
2022/05/25 05:37:12;;;;;;;3.35;1.60;;;11.10;97.00;;;;;;5076221;28;20365;-70
2022/05/25 05:39:42;;;;;;;;;;;11.10;97.10;;;;;;5073804;28;20048;-69
2022/05/25 05:42:12;;;;;;;4.75;1.60;;;11.10;97.10;;;;;;5063726;28;19908;-69
2022/05/25 05:44:55;;;;;;;3.40;1.40;;;11.30;97.10;;;;;;5059166;28;20454;-70
2022/05/25 05:47:25;;;;;;;4.22;1.17;;;11.50;97.40;;;;;;5059235;28;20174;-69
2022/05/25 05:49:51;;;;;;;2.78;1.30;;;11.80;97.80;;;;;;5068951;28;20032;-69
2022/05/25 05:52:17;;;;;;;2.83;1.30;;;12.20;98.00;;;;;;5078304;28;20020;-69
2022/05/25 05:54:44;;;;;;;4.85;1.17;;;12.80;98.00;;;;;;5071986;28;20051;-69
2022/05/25 05:57:11;;;;;;;3.58;0.90;;;13.40;98.00;;;;;;5076287;28;20065;-69
2022/05/25 05:59:40;;;;;;;4.07;1.40;;;14.00;96.80;;;;;;5077583;28;20063;-69
2022/05/25 06:02:06;;;;;;;3.72;1.20;;;14.00;94.10;;;;;;5075069;28;20035;-69
2022/05/25 06:04:32;;;;;;;3.38;1.00;;;13.90;92.60;;;;;;5076474;28;20099;-69
2022/05/25 06:06:58;;;;;;;2.40;1.15;;;13.70;89.90;;;;;;5076091;28;20409;-69
2022/05/25 06:09:24;;;;;;;2.88;1.08;;;13.70;90.70;;;;;;5060230;28;20032;-69
2022/05/25 06:11:49;;;;;;;4.45;1.17;;;13.70;90.10;;;;;;5064333;28;20385;-69
2022/05/25 06:14:15;;;;;;;4.30;1.10;;;13.60;90.70;;;;;;5059733;28;20111;-69
2022/05/25 06:19:27;;;;;;;2.90;1.10;;;13.80;89.90;;;;;;5077534;28;20077;-68
2022/05/25 06:22:08;;;;;;;4.80;1.20;;;13.80;88.40;;;;;;5075525;28;20425;-68
2022/05/25 06:24:43;;;;;;;4.55;1.10;;;13.90;88.20;;;;;;5056143;28;20111;-68
2022/05/25 06:27:11;;;;;;;4.93;1.35;;;13.90;86.90;;;;;;5055369;28;20437;-69
2022/05/25 06:29:43;;;;;;;3.05;1.20;;;14.10;87.00;;;;;;5057223;28;20055;-69
2022/05/25 06:32:11;;;;;;;3.95;1.10;;;14.20;87.40;;;;;;5070384;28;20029;-68
2022/05/25 06:34:38;;;;;;;3.95;1.15;;;14.20;85.30;;;;;;5076039;28;20063;-68
2022/05/25 06:37:05;;;;;;;2.53;1.00;;;14.10;85.10;;;;;;5074314;28;20028;-68
2022/05/25 06:39:37;;;;;;;1.98;1.05;;;14.20;86.30;;;;;;5059460;28;20320;-67
2022/05/25 06:42:04;;;;;;;2.65;1.15;;;14.30;85.50;;;;;;5077059;28;20054;-68
2022/05/25 06:44:33;;;;;;;1.73;1.00;;;14.40;86.00;;;;;;5062355;28;20016;-68
2022/05/25 06:47:01;;;;;;;6.25;1.40;;;14.50;85.00;;;;;;5077030;28;20107;-67
2022/05/25 06:49:30;;;;;;;2.75;1.10;;;14.70;84.00;;;;;;5075082;28;20186;-70
2022/05/25 06:51:58;;;;;;;5.13;1.35;;;15.00;83.70;;;;;;5074607;28;20029;-69
2022/05/25 06:54:24;;;;;;;6.13;1.08;;;14.90;84.10;;;;;;5057732;28;20025;-69
2022/05/25 06:56:50;;;;;;;4.63;1.30;;;14.90;83.50;;;;;;5076679;28;20336;-69
2022/05/25 06:59:15;;;;;;;3.20;1.08;;;14.70;82.60;;;;;;5074838;28;20128;-71
2022/05/25 07:01:42;;;;;;;3.15;1.10;;;14.80;82.90;;;;;;5071590;28;20036;-69
2022/05/25 07:04:09;;;;;;;2.05;1.08;;;15.20;81.70;;;;;;5058041;28;20120;-69
2022/05/25 07:06:39;;;;;;;4.28;1.10;;;15.50;81.60;;;;;;5056710;28;20467;-68
2022/05/25 07:09:07;;;;;;;2.35;1.15;;;15.70;80.20;;;;;;4986153;28;20568;-67
2022/05/25 07:11:33;;;;;;;2.45;1.05;;;15.70;80.70;;;;;;5075903;28;20369;-68
2022/05/25 07:14:00;;;;;;;3.08;1.00;;;15.50;79.40;;;;;;5055978;28;20107;-68
2022/05/25 07:16:26;;;;;;;2.58;0.90;;;15.30;79.70;;;;;;5055160;28;20330;-68
2022/05/25 07:18:52;;;;;;;3.22;0.90;;;15.10;79.70;;;;;;5056421;28;20023;-68
2022/05/25 07:21:30;;;;;;;2.45;1.00;;;15.10;81.10;;;;;;5056273;28;20032;-68
2022/05/25 07:23:57;;;;;;;2.80;1.00;;;15.50;80.30;;;;;;5064860;28;20017;-68
2022/05/25 07:26:25;;;;;;;2.10;1.05;;;15.80;79.90;;;;;;5064428;28;21727;-68
2022/05/25 07:28:51;;;;;;;3.38;1.38;;;15.80;79.80;;;;;;5058502;28;20409;-67
2022/05/25 07:31:38;;;;;;;3.90;1.38;;;15.80;79.90;;;;;;5055369;28;20037;-68
2022/05/25 07:34:14;;;;;;;4.30;1.60;;;15.50;80.80;;;;;;5054607;28;20428;-68
2022/05/25 07:36:41;;;;;;;2.45;1.10;;;15.40;80.80;;;;;;5063083;28;20040;-69
2022/05/25 07:39:11;;;;;;;4.95;1.45;;;15.90;80.50;;;;;;5055635;28;20072;-69
2022/05/25 07:41:40;;;;;;;4.63;1.20;;;16.90;77.70;;;;;;5052884;28;20025;-68
2022/05/25 07:44:08;;;;;;;3.13;1.20;;;17.70;74.30;;;;;;5063237;28;20371;-68
2022/05/25 07:46:35;;;;;;;3.13;1.08;;;18.30;72.10;;;;;;5076117;28;20019;-69
2022/05/25 07:49:04;;;;;;;2.70;1.15;;;19.40;70.20;;;;;;5072571;28;20035;-68
2022/05/25 07:51:29;;;;;;;4.20;1.17;;;19.70;68.20;;;;;;5066588;28;20090;-69
2022/05/25 07:53:58;;;;;;;3.60;1.00;;;19.00;68.40;;;;;;5070363;28;20026;-69
2022/05/25 07:56:29;;;;;;;2.70;1.05;;;18.70;69.70;;;;;;5055381;28;20045;-68
2022/05/25 07:59:08;;;;;;;4.03;1.20;;;19.00;69.00;;;;;;5054645;28;20417;-69
2022/05/25 08:07:18;;;;;;;4.38;1.00;;;23.50;59.80;;;;;;5075925;28;20039;-69
2022/05/25 08:09:43;;;;;;;3.20;0.70;;;23.90;60.30;;;;;;5072957;28;20028;-69
2022/05/25 08:12:11;;;;;;;2.15;0.80;;;23.70;60.80;;;;;;5076042;28;20033;-70
2022/05/25 08:14:37;;;;;;;3.80;0.90;;;23.60;59.40;;;;;;5057469;28;20017;-69
2022/05/25 08:17:04;;;;;;;2.65;0.70;;;22.90;58.50;;;;;;5074513;28;20324;-69
2022/05/25 08:19:30;;;;;;;3.40;0.80;;;22.70;59.30;;;;;;5074765;28;20020;-69
2022/05/25 08:21:58;;;;;;;3.22;0.98;;;22.50;59.80;;;;;;5072832;28;20409;-68
2022/05/25 08:24:24;;;;;;;2.70;0.88;;;21.50;61.90;;;;;;5074639;28;20107;-69
2022/05/25 08:26:53;;;;;;;2.85;0.90;;;21.00;62.80;;;;;;5049904;28;20116;-69
2022/05/25 08:29:19;;;;;;;2.17;0.80;;;21.80;61.50;;;;;;5055497;28;20060;-69
2022/05/25 08:31:44;;;;;;;3.97;0.90;;;23.00;60.00;;;;;;5055440;28;20025;-69
2022/05/25 08:34:10;;;;;;;1.60;0.70;;;24.20;59.30;;;;;;5055470;28;20087;-69
2022/05/25 08:36:35;;;;;;;1.55;0.73;;;23.70;57.90;;;;;;5055785;28;20033;-69
2022/05/25 08:39:01;;;;;;;3.33;1.02;;;23.30;58.40;;;;;;5054440;28;20029;-69
2022/05/25 08:41:36;;;;;;;1.88;0.88;;;22.90;58.70;;;;;;5054351;28;20029;-69
2022/05/25 08:44:04;;;;;;;1.85;0.70;;;22.80;59.40;;;;;;5055511;28;20060;-69
2022/05/25 08:46:32;;;;;;;3.10;0.80;;;23.70;58.40;;;;;;5055480;28;20017;-69
2022/05/25 08:49:02;;;;;;;1.23;0.68;;;24.50;56.90;;;;;;5055497;28;20087;-69
2022/05/25 08:51:28;;;;;;;2.17;0.82;;;24.70;57.30;;;;;;5055455;28;20025;-69
2022/05/25 08:53:57;;;;;;;2.45;0.70;;;24.80;56.10;;;;;;5054295;28;20040;-68
2022/05/25 08:56:47;;;;;;;3.03;1.00;;;22.80;58.80;;;;;;5053531;28;20074;-69
2022/05/25 08:59:15;;;;;;;4.75;1.10;;;21.20;63.10;;;;;;5054390;28;20044;-69
2022/05/25 09:01:53;;;;;;;1.38;0.80;;;21.00;62.80;;;;;;5068007;28;20085;-68
2022/05/25 09:04:53;;;;;;;3.03;0.77;;;20.80;63.00;;;;;;5057613;28;20029;-68
2022/05/25 09:07:49;;;;;;;2.72;0.88;;;21.20;63.50;;;;;;5075021;28;20041;-69
2022/05/25 09:10:15;;;;;;;2.47;0.90;;;22.40;61.50;;;;;;5068537;28;20029;-69
2022/05/25 09:12:44;;;;;;;2.10;0.80;;;23.00;59.70;;;;;;5058045;28;20036;-69
2022/05/25 09:15:19;;;;;;;1.73;0.70;;;23.50;59.20;;;;;;5058717;28;20290;-69
2022/05/25 09:17:53;;;;;;;3.55;0.75;;;24.40;59.30;;;;;;5077859;28;20028;-69
2022/05/25 09:20:25;;;;;;;2.05;0.82;;;25.00;56.90;;;;;;5076680;28;20097;-69
2022/05/25 09:22:52;;;;;;;1.58;0.63;;;24.40;57.80;;;;;;5070893;28;20029;-68
2022/05/25 09:25:19;;;;;;;2.47;0.85;;;22.80;58.80;;;;;;5056437;28;20029;-69
2022/05/25 09:28:07;;;;;;;3.50;0.90;;;21.10;61.20;;;;;;5065894;28;20394;-69
2022/05/25 09:30:37;;;;;;;4.05;1.20;;;19.90;65.40;;;;;;5060444;28;20021;-68
2022/05/25 09:33:24;;;;;;;2.45;1.10;;;18.90;68.80;;;;;;5069237;28;20041;-68
2022/05/25 09:36:00;;;;;;;2.67;1.05;;;18.50;71.00;;;;;;5058015;28;20355;-67
2022/05/25 09:38:49;;;;;;;3.83;0.88;;;19.10;70.20;;;;;;5077283;28;20035;-68
2022/05/25 09:41:21;;;;;;;3.15;0.93;;;21.00;66.20;;;;;;5057837;28;20027;-67
2022/05/25 09:43:53;;;;;;;2.28;0.77;;;22.80;61.30;;;;;;5056838;28;20025;-69
2022/05/25 09:46:26;;;;;;;2.10;0.80;;;23.80;61.70;;;;;;5068433;28;20348;-70
2022/05/25 09:49:03;;;;;;;3.28;0.80;;;24.10;57.50;;;;;;5075993;28;20326;-70
2022/05/25 09:51:51;;;;;;;1.60;0.68;;;24.40;57.60;;;;;;5078375;28;20021;-70
2022/05/25 09:54:31;;;;;;;2.40;0.73;;;24.80;56.10;;;;;;5053122;28;20078;-69
2022/05/25 09:57:05;;;;;;;2.90;0.80;;;24.90;55.00;;;;;;5056540;28;20037;-69
2022/05/25 09:59:40;;;;;;;;;;;24.40;56.30;;;;;;5075817;28;20137;-69
2022/05/25 10:02:49;;;;;;;1.85;0.63;;;24.60;57.00;;;;;;5060594;28;20317;-69
2022/05/25 10:05:27;;;;;;;2.75;1.10;;;23.60;56.90;;;;;;5037574;28;20044;-68
2022/05/25 10:08:26;;;;;;;2.45;0.82;;;22.20;60.20;;;;;;5037994;28;20076;-69
2022/05/25 10:11:08;;;;;;;1.60;0.80;;;21.30;60.80;;;;;;5044750;28;20072;-68
2022/05/25 10:13:42;;;;;;;2.10;0.57;;;22.00;60.00;;;;;;5074763;28;20039;-69
2022/05/25 10:16:21;;;;;;;3.88;0.73;;;23.80;58.00;;;;;;5064245;28;20077;-69
2022/05/25 10:18:48;;;;;;;1.33;0.60;;;25.00;54.50;;;;;;5056425;28;20305;-69
2022/05/25 10:21:35;;;;;;;1.85;0.70;;;26.30;54.50;;;;;;5061828;28;20317;-69
2022/05/25 10:24:13;;;;;;;1.92;0.80;;;26.30;52.10;;;;;;5054939;28;20029;-69
2022/05/25 10:26:46;;;;;;;1.63;0.60;;;26.20;53.20;;;;;;5059941;28;20025;-69
2022/05/25 10:38:27;;;;;;;3.25;1.00;;;22.30;58.20;;;;;;5055776;28;20036;-68
2022/05/25 10:40:57;;;;;;;2.30;0.80;;;21.40;60.80;;;;;;5057124;28;20321;-69
2022/05/25 10:43:29;;;;;;;1.77;0.70;;;22.10;60.60;;;;;;5057227;28;20302;-69
2022/05/25 10:45:58;;;;;;;2.80;0.70;;;24.10;60.30;;;;;;5057213;28;20064;-68
2022/05/25 10:49:07;;;;;;;3.72;0.55;;;25.40;56.70;;;;;;5057063;28;20025;-69
2022/05/25 10:51:45;;;;;;;2.20;0.70;;;26.10;55.60;;;;;;5055916;28;20029;-69
2022/05/25 10:57:24;;;;;;;2.03;0.77;;;25.00;56.10;;;;;;5056980;28;20028;-69
2022/05/25 11:00:12;;;;;;;2.10;0.80;;;24.30;56.80;;;;;;5056843;28;20333;-69
2022/05/25 11:02:41;;;;;;;3.60;0.80;;;23.30;58.60;;;;;;5056711;28;20025;-68
2022/05/25 11:05:41;;;;;;;1.25;0.60;;;22.20;59.50;;;;;;5056009;28;20028;-69
2022/05/25 11:08:16;;;;;;;1.90;0.98;;;22.90;59.30;;;;;;5052105;28;20479;-69
2022/05/25 11:10:54;;;;;;;2.30;0.80;;;22.20;60.00;;;;;;5053156;28;20051;-68
2022/05/25 11:13:57;;;;;;;3.60;1.30;;;22.00;60.30;;;;;;5055419;28;20299;-69
2022/05/25 11:16:50;;;;;;;1.98;0.80;;;21.80;62.30;;;;;;5056452;28;20032;-69
2022/05/25 11:19:32;;;;;;;2.38;0.93;;;21.90;61.90;;;;;;5058313;28;20103;-67
2022/05/25 11:22:10;;;;;;;1.90;1.00;;;21.50;60.20;;;;;;5046297;28;20052;-68
2022/05/25 11:25:12;;;;;;;3.10;0.90;;;21.10;62.70;;;;;;5046712;28;20044;-67
2022/05/25 11:27:50;;;;;;;2.22;0.80;;;21.20;62.70;;;;;;5031595;28;20037;-67
2022/05/25 11:30:39;;;;;;;3.67;0.90;;;21.20;62.80;;;;;;5056167;28;20099;-68
2022/05/25 11:33:29;;;;;;;4.63;0.88;;;21.40;63.30;;;;;;5056350;28;20025;-69
2022/05/25 11:36:20;;;;;;;4.30;1.00;;;22.30;62.10;;;;;;5055851;28;20061;-68
2022/05/25 11:38:53;;;;;;;3.63;1.00;;;22.20;62.60;;;;;;5053292;28;20108;-68
2022/05/25 11:42:11;;;;;;;4.28;1.10;;;21.10;62.80;;;;;;5055425;28;20020;-68
2022/05/25 11:45:14;;;;;;;5.55;0.98;;;22.10;63.00;;;;;;5013004;28;20030;-68
2022/05/25 11:48:05;;;;;;;2.45;0.68;;;23.50;58.30;;;;;;5003950;28;20026;-68
2022/05/25 11:50:47;;;;;;;3.58;0.85;;;24.70;59.10;;;;;;5052140;28;20044;-68
2022/05/25 11:53:22;;;;;;;1.67;0.68;;;25.40;55.30;;;;;;5046271;28;20025;-68
2022/05/25 11:56:14;;;;;;;3.33;0.85;;;25.10;56.00;;;;;;5053936;28;20111;-67
2022/05/25 11:59:24;;;;;;;3.33;0.82;;;23.40;58.60;;;;;;5055644;28;20029;-68
2022/05/25 12:01:59;;;;;;;2.10;0.70;;;23.60;59.00;;;;;;5053777;28;20128;-68
2022/05/25 12:04:43;;;;;;;2.30;0.80;;;24.80;57.90;;;;;;5055014;28;20307;-68
2022/05/25 12:07:38;;;;;;;1.55;0.70;;;24.90;56.60;;;;;;5054491;28;20041;-68
2022/05/25 12:10:24;;;;;;;1.92;0.75;;;24.80;57.20;;;;;;5054376;28;20421;-68
2022/05/25 12:13:06;;;;;;;2.78;0.80;;;24.70;57.00;;;;;;5055595;28;20021;-68
2022/05/25 12:15:54;;;;;;;2.58;0.90;;;24.40;55.60;;;;;;5055517;28;20040;-68
2022/05/25 12:18:38;;;;;;;6.88;0.90;;;24.40;57.10;;;;;;5055445;28;20067;-68
2022/05/25 12:21:14;;;;;;;1.88;0.85;;;24.50;58.60;;;;;;5055171;28;20115;-68
2022/05/25 12:24:05;;;;;;;2.13;0.70;;;24.20;57.50;;;;;;5053047;28;20029;-68
2022/05/25 12:26:32;;;;;;;2.33;0.90;;;23.90;55.40;;;;;;5032874;28;20038;-68
2022/05/25 12:29:30;;;;;;;1.80;0.60;;;23.80;54.40;;;;;;5034360;28;20024;-68
2022/05/25 12:31:56;;;;;;;2.70;0.80;;;23.40;54.30;;;;;;5035436;28;20018;-68
2022/05/25 12:34:40;;;;;;;3.53;0.95;;;24.30;54.30;;;;;;5035503;28;20030;-68
2022/05/25 12:37:09;;;;;;;2.45;0.70;;;24.90;53.10;;;;;;5043158;28;20036;-69
2022/05/25 12:39:46;;;;;;;2.70;0.60;;;25.00;53.40;;;;;;5058047;28;20036;-70
2022/05/25 12:42:45;;;;;;;3.42;1.02;;;25.10;53.80;;;;;;5059349;28;20060;-68
2022/05/25 12:48:34;;;;;;;1.80;0.70;;;23.40;55.60;;;;;;5053697;28;20083;-68
2022/05/25 12:51:10;;;;;;;2.97;0.70;;;23.50;56.80;;;;;;5057929;28;20383;-68
2022/05/25 12:53:47;;;;;;;4.07;0.80;;;23.90;55.70;;;;;;5057810;28;20024;-69
2022/05/25 12:56:19;;;;;;;3.05;0.60;;;23.80;56.80;;;;;;5058508;28;20433;-69
2022/05/25 12:58:58;;;;;;;1.85;0.60;;;24.20;54.90;;;;;;5058700;28;20024;-69
2022/05/25 13:01:27;;;;;;;5.10;1.00;;;25.10;53.50;;;;;;5055477;28;20041;-67
2022/05/25 13:03:56;;;;;;;2.25;0.70;;;25.80;52.60;;;;;;5058746;28;20118;-69
2022/05/25 13:06:46;;;;;;;1.45;0.70;;;25.50;53.10;;;;;;5055250;28;20120;-68
2022/05/25 13:09:39;;;;;;;3.70;0.80;;;25.60;52.50;;;;;;5073186;28;20039;-68
2022/05/25 13:12:50;;;;;;;1.40;0.70;;;23.70;55.00;;;;;;5057749;28;20045;-68
2022/05/25 13:15:17;;;;;;;4.55;1.10;;;22.30;57.20;;;;;;5055911;28;20029;-68
2022/05/25 13:17:47;;;;;;;3.53;0.93;;;22.20;58.00;;;;;;5058588;28;20021;-68
2022/05/25 13:20:48;;;;;;;1.80;0.63;;;22.30;58.80;;;;;;5058481;28;20070;-68
2022/05/25 13:23:51;;;;;;;3.50;0.70;;;24.10;55.30;;;;;;5042424;28;20033;-68
2022/05/25 13:26:24;;;;;;;3.10;0.95;;;24.70;54.60;;;;;;5038385;28;20436;-69
2022/05/25 13:28:49;;;;;;;3.90;0.70;;;24.50;56.30;;;;;;5038458;28;20018;-68
2022/05/25 13:32:08;;;;;;;1.15;0.55;;;25.00;53.70;;;;;;5055986;28;20110;-69
2022/05/25 13:34:34;;;;;;;2.35;0.80;;;25.80;52.70;;;;;;5019373;28;20033;-68
2022/05/25 13:37:11;;;;;;;1.60;0.70;;;26.20;52.90;;;;;;5036210;28;20100;-69
2022/05/25 13:39:37;;;;;;;3.58;0.80;;;26.60;51.20;;;;;;5049461;28;20393;-68
2022/05/25 13:42:10;;;;;;;1.60;0.50;;;25.90;51.60;;;;;;5057975;28;20065;-68
2022/05/25 13:44:46;;;;;;;1.42;0.60;;;26.00;51.70;;;;;;5056732;28;20024;-68
2022/05/25 13:47:24;;;;;;;2.53;0.80;;;25.90;51.80;;;;;;5056685;28;20040;-68
2022/05/25 13:49:55;;;;;;;1.25;0.60;;;26.00;53.10;;;;;;5055682;28;20360;-67
2022/05/25 13:52:30;;;;;;;1.67;0.57;;;26.50;51.50;;;;;;5055776;28;20100;-67